Time;durP1;ratioP1;P1;durP2;ratioP2;P2;SDS_P1;SDS_P2;PMS_P1;PMS_P2;Temp;Humidity;BMP_temperature;BMP_pressure;BME280_temperature;BME280_humidity;BME280_pressure;Samples;Min_cycle;Max_cycle;Signal;HPM_P1;HPM_P2
2023/12/15 00:01:09;;;;;;;32.55;21.05;;;6.20;99.90;;;;;;5038081;28;20226;-71
2023/12/15 00:03:36;;;;;;;27.52;17.90;;;6.20;99.90;;;;;;5038129;28;20236;-71
2023/12/15 00:06:05;;;;;;;24.58;16.15;;;6.30;99.90;;;;;;5040963;28;20257;-73
2023/12/15 00:08:32;;;;;;;30.70;17.75;;;6.40;99.90;;;;;;5042958;28;20248;-73
2023/12/15 00:10:59;;;;;;;28.35;18.08;;;6.30;99.90;;;;;;5039536;28;20200;-71
2023/12/15 00:13:28;;;;;;;30.27;17.30;;;6.30;99.90;;;;;;5045631;28;20217;-72
2023/12/15 00:15:55;;;;;;;27.38;16.25;;;6.30;99.90;;;;;;5038053;28;20207;-70
2023/12/15 00:18:22;;;;;;;27.38;16.50;;;6.40;99.90;;;;;;5035025;28;20803;-71
2023/12/15 00:20:49;;;;;;;24.83;17.17;;;6.20;99.90;;;;;;5040670;28;20212;-72
2023/12/15 00:23:16;;;;;;;28.75;18.02;;;6.20;99.90;;;;;;5037743;28;20197;-71
2023/12/15 00:25:43;;;;;;;30.48;18.42;;;6.10;99.90;;;;;;5042407;28;20262;-72
2023/12/15 00:28:10;;;;;;;28.23;17.67;;;6.00;99.90;;;;;;5034339;28;20255;-72
2023/12/15 00:30:38;;;;;;;29.23;18.00;;;6.10;99.90;;;;;;5047149;28;20250;-71
2023/12/15 00:33:05;;;;;;;29.23;18.33;;;6.10;99.90;;;;;;5036313;28;20220;-71
2023/12/15 00:35:32;;;;;;;29.25;17.77;;;6.10;99.90;;;;;;5044973;28;20257;-72
2023/12/15 00:37:59;;;;;;;25.35;15.18;;;6.00;99.90;;;;;;5036449;28;20306;-71
2023/12/15 00:40:26;;;;;;;29.85;18.52;;;6.00;99.90;;;;;;5040024;28;20662;-71
2023/12/15 00:42:53;;;;;;;33.15;17.52;;;6.00;99.90;;;;;;5034962;28;20200;-71
2023/12/15 00:45:20;;;;;;;30.92;18.30;;;6.00;99.90;;;;;;5042703;28;20620;-73
2023/12/15 00:47:48;;;;;;;31.77;16.92;;;6.00;99.90;;;;;;5050111;28;20224;-69
2023/12/15 00:50:16;;;;;;;26.98;16.58;;;5.90;99.90;;;;;;5046700;28;20247;-72
2023/12/15 00:52:43;;;;;;;29.88;16.50;;;6.00;99.90;;;;;;5034173;28;20236;-69
2023/12/15 00:55:10;;;;;;;31.73;18.23;;;5.90;99.90;;;;;;5036101;28;20205;-72
2023/12/15 00:57:37;;;;;;;28.67;17.85;;;5.90;99.90;;;;;;5036724;28;20224;-73
2023/12/15 01:00:05;;;;;;;28.88;16.77;;;5.90;99.90;;;;;;5034130;28;20209;-72
2023/12/15 01:02:32;;;;;;;30.58;17.13;;;5.90;99.90;;;;;;5036318;28;20561;-71
2023/12/15 01:05:00;;;;;;;26.83;16.98;;;6.00;99.90;;;;;;5042410;28;20212;-72
2023/12/15 01:07:30;;;;;;;31.88;19.10;;;6.00;99.90;;;;;;5048607;28;20220;-70
2023/12/15 01:09:57;;;;;;;27.40;16.83;;;5.90;99.90;;;;;;5036768;28;20208;-73
2023/12/15 01:12:24;;;;;;;30.52;18.05;;;5.90;99.90;;;;;;5032550;28;20217;-71
2023/12/15 01:14:51;;;;;;;26.92;17.65;;;5.80;99.90;;;;;;5044338;28;20254;-69
2023/12/15 01:17:18;;;;;;;24.70;16.35;;;5.90;99.90;;;;;;5042412;28;20690;-70
2023/12/15 01:19:45;;;;;;;29.30;18.00;;;5.90;99.90;;;;;;5044466;28;20580;-73
2023/12/15 01:22:13;;;;;;;25.70;16.63;;;5.80;99.90;;;;;;5038283;28;20612;-73
2023/12/15 01:24:40;;;;;;;32.28;18.55;;;5.80;99.90;;;;;;5043378;28;20684;-71
2023/12/15 01:27:07;;;;;;;31.63;18.67;;;5.80;99.90;;;;;;5033982;28;20287;-70
2023/12/15 01:29:34;;;;;;;31.17;19.15;;;5.80;99.90;;;;;;5034969;28;20249;-72
2023/12/15 01:32:01;;;;;;;29.88;18.23;;;5.80;99.90;;;;;;5041883;28;20231;-72
2023/12/15 01:34:28;;;;;;;35.22;20.20;;;5.80;99.90;;;;;;5046878;28;20610;-74
2023/12/15 01:36:55;;;;;;;32.20;18.33;;;5.70;99.90;;;;;;5037836;28;20260;-71
2023/12/15 01:39:24;;;;;;;36.20;19.50;;;5.70;99.90;;;;;;5033363;28;20201;-71
2023/12/15 01:41:51;;;;;;;35.55;20.58;;;5.70;99.90;;;;;;5033656;28;20636;-71
2023/12/15 01:44:18;;;;;;;36.63;20.00;;;5.70;99.90;;;;;;5035355;28;20259;-71
2023/12/15 01:46:45;;;;;;;37.13;21.77;;;5.70;99.90;;;;;;5035767;28;20264;-70
2023/12/15 01:49:12;;;;;;;38.22;20.67;;;5.60;99.90;;;;;;5036023;28;20255;-71
2023/12/15 01:51:39;;;;;;;41.80;20.15;;;5.70;99.90;;;;;;5033884;28;20282;-70
2023/12/15 01:54:07;;;;;;;39.85;22.02;;;5.50;99.90;;;;;;5034750;28;20220;-72
2023/12/15 01:56:36;;;;;;;47.58;23.05;;;5.50;99.90;;;;;;5042987;28;20675;-73
2023/12/15 01:59:03;;;;;;;39.30;20.23;;;5.50;99.90;;;;;;5033536;28;20201;-71
2023/12/15 02:01:30;;;;;;;41.38;20.90;;;5.50;99.90;;;;;;5035171;28;20201;-69
2023/12/15 02:03:57;;;;;;;46.25;22.58;;;5.50;99.90;;;;;;5033585;28;20204;-71
2023/12/15 02:06:24;;;;;;;41.22;21.40;;;5.50;99.90;;;;;;5040176;28;20274;-71
2023/12/15 02:08:51;;;;;;;44.90;23.30;;;5.50;99.90;;;;;;5042759;28;20258;-70
2023/12/15 02:11:18;;;;;;;39.20;23.10;;;5.50;99.90;;;;;;5044811;28;20240;-68
2023/12/15 02:13:46;;;;;;;45.63;23.70;;;5.50;99.90;;;;;;5036787;28;20278;-73
2023/12/15 02:16:13;;;;;;;48.15;24.50;;;5.50;99.90;;;;;;5040087;28;20225;-71
2023/12/15 02:18:40;;;;;;;52.70;23.33;;;5.50;99.90;;;;;;5038491;28;20623;-70
2023/12/15 02:21:07;;;;;;;46.45;24.63;;;5.50;99.90;;;;;;5046443;28;20350;-69
2023/12/15 02:23:35;;;;;;;41.05;24.20;;;5.60;99.90;;;;;;5040804;28;20246;-73
2023/12/15 02:26:02;;;;;;;37.60;23.40;;;5.60;99.90;;;;;;5042471;28;20200;-71
2023/12/15 02:28:29;;;;;;;46.35;24.70;;;5.70;99.90;;;;;;5035506;28;20744;-70
2023/12/15 02:30:56;;;;;;;38.22;22.17;;;5.80;99.90;;;;;;5038151;28;20615;-70
2023/12/15 02:33:23;;;;;;;45.20;24.17;;;5.90;99.90;;;;;;5035720;28;20274;-72
2023/12/15 02:35:50;;;;;;;44.05;24.70;;;5.90;99.90;;;;;;5039174;28;20213;-69
2023/12/15 02:38:18;;;;;;;42.10;23.13;;;5.80;99.90;;;;;;5041577;28;20213;-72
2023/12/15 02:40:46;;;;;;;36.90;23.00;;;5.90;99.90;;;;;;5038876;28;21920;-72
2023/12/15 02:43:14;;;;;;;36.42;21.67;;;5.90;99.90;;;;;;5035550;28;20252;-71
2023/12/15 02:45:40;;;;;;;37.72;20.80;;;5.90;99.90;;;;;;5041381;28;20197;-71
2023/12/15 02:48:07;;;;;;;30.55;19.17;;;5.90;99.90;;;;;;5039832;28;20243;-70
2023/12/15 02:50:34;;;;;;;55.80;24.65;;;5.90;99.90;;;;;;5037620;28;20205;-72
2023/12/15 02:53:01;;;;;;;37.03;21.90;;;5.90;99.90;;;;;;5034452;28;20730;-74
2023/12/15 02:55:28;;;;;;;45.95;25.77;;;5.90;99.90;;;;;;5050091;28;20227;-69
2023/12/15 02:57:57;;;;;;;42.38;23.00;;;5.90;99.90;;;;;;5041619;28;20251;-69
2023/12/15 03:00:24;;;;;;;43.58;23.15;;;5.90;99.90;;;;;;5038993;28;20263;-71
2023/12/15 03:02:51;;;;;;;50.03;27.25;;;5.90;99.90;;;;;;5036533;28;20197;-72
2023/12/15 03:05:18;;;;;;;51.33;24.63;;;5.80;99.90;;;;;;5035934;28;20255;-70
2023/12/15 03:07:45;;;;;;;53.08;25.58;;;5.80;99.90;;;;;;5036523;28;20651;-73
2023/12/15 03:10:12;;;;;;;63.97;28.50;;;5.80;99.90;;;;;;5036138;28;20247;-71
2023/12/15 03:12:39;;;;;;;50.95;25.52;;;5.80;99.90;;;;;;5037155;28;20213;-69
2023/12/15 03:15:08;;;;;;;50.90;27.98;;;5.80;99.90;;;;;;5045402;28;20295;-69
2023/12/15 03:17:35;;;;;;;66.32;29.20;;;5.80;99.90;;;;;;5047205;28;20285;-73
2023/12/15 03:20:03;;;;;;;49.38;26.00;;;5.90;99.90;;;;;;5038614;28;20668;-68
2023/12/15 03:22:30;;;;;;;60.55;29.75;;;5.90;99.90;;;;;;5037227;28;20287;-71
2023/12/15 03:24:57;;;;;;;45.50;22.67;;;5.90;99.90;;;;;;5038888;28;20235;-73
2023/12/15 03:27:24;;;;;;;47.38;25.95;;;6.00;99.90;;;;;;5043656;28;20263;-73
2023/12/15 03:29:51;;;;;;;47.78;26.33;;;6.00;99.90;;;;;;5038260;28;20335;-70
2023/12/15 03:32:20;;;;;;;52.47;27.02;;;6.00;99.90;;;;;;5051257;28;20234;-71
2023/12/15 03:34:47;;;;;;;60.97;27.98;;;6.00;99.90;;;;;;5052031;28;20219;-73
2023/12/15 03:37:14;;;;;;;43.83;25.98;;;6.00;99.90;;;;;;5034681;28;20232;-71
2023/12/15 03:39:41;;;;;;;58.75;30.63;;;6.10;99.90;;;;;;5039480;28;20201;-73
2023/12/15 03:42:08;;;;;;;36.60;23.42;;;6.00;99.90;;;;;;5038004;28;20205;-68
2023/12/15 03:44:36;;;;;;;44.70;24.15;;;6.00;99.90;;;;;;5044752;28;20193;-68
2023/12/15 03:47:03;;;;;;;54.67;28.30;;;6.00;99.90;;;;;;5042432;28;20592;-73
2023/12/15 03:49:32;;;;;;;48.88;26.90;;;6.00;99.90;;;;;;5037196;28;20209;-70
2023/12/15 03:51:59;;;;;;;74.93;30.33;;;6.00;99.90;;;;;;5034947;28;20288;-70
2023/12/15 03:54:25;;;;;;;51.47;28.45;;;5.90;99.90;;;;;;5034055;28;20248;-70
2023/12/15 03:56:56;;;;;;;72.20;31.92;;;6.00;99.90;;;;;;5036026;28;20574;-70
2023/12/15 03:59:23;;;;;;;59.83;27.73;;;5.90;99.90;;;;;;5035338;28;20631;-70
2023/12/15 04:01:50;;;;;;;44.63;24.80;;;5.90;99.90;;;;;;5034705;28;20201;-70
2023/12/15 04:04:18;;;;;;;61.92;32.58;;;5.90;99.90;;;;;;5036488;28;20608;-73
2023/12/15 04:06:46;;;;;;;54.25;27.92;;;5.80;99.90;;;;;;5035191;28;20531;-69
2023/12/15 04:09:13;;;;;;;58.42;30.80;;;5.80;99.90;;;;;;5047095;28;20254;-72
2023/12/15 04:11:40;;;;;;;50.88;26.42;;;6.00;99.90;;;;;;5038783;28;20228;-70
2023/12/15 04:14:08;;;;;;;53.22;27.35;;;5.90;99.90;;;;;;5033678;28;20259;-72
2023/12/15 04:16:35;;;;;;;50.22;27.27;;;6.00;99.90;;;;;;5037998;28;20584;-70
2023/12/15 04:19:02;;;;;;;51.50;27.58;;;6.10;99.90;;;;;;5037349;28;20259;-69
2023/12/15 04:21:29;;;;;;;49.05;26.00;;;6.10;99.90;;;;;;5038884;28;20203;-70
2023/12/15 04:23:58;;;;;;;47.50;27.33;;;6.00;99.90;;;;;;5034456;28;20611;-71
2023/12/15 04:26:25;;;;;;;57.10;29.63;;;6.00;99.90;;;;;;5039874;28;20225;-71
2023/12/15 04:28:52;;;;;;;53.38;29.92;;;6.00;99.90;;;;;;5042548;28;20243;-70
2023/12/15 04:31:19;;;;;;;59.05;30.33;;;6.00;99.90;;;;;;5034243;28;20204;-71
2023/12/15 04:33:46;;;;;;;60.42;32.28;;;6.00;99.90;;;;;;5039108;28;20208;-71
2023/12/15 04:36:13;;;;;;;53.35;29.10;;;6.00;99.90;;;;;;5032907;28;20593;-71
2023/12/15 04:38:39;;;;;;;57.95;29.08;;;6.10;99.90;;;;;;5035639;28;20207;-72
2023/12/15 04:41:17;;;;;;;55.92;30.88;;;6.10;99.90;;;;;;5034340;28;20291;-70
2023/12/15 04:43:45;;;;;;;59.25;34.05;;;6.10;99.90;;;;;;5037040;28;20283;-71
2023/12/15 04:46:12;;;;;;;64.13;30.95;;;6.10;99.90;;;;;;5036492;28;20220;-71
2023/12/15 04:48:39;;;;;;;60.03;31.90;;;6.10;99.90;;;;;;5039055;28;20566;-72
2023/12/15 04:51:06;;;;;;;61.60;33.30;;;6.20;99.90;;;;;;5035394;28;20695;-70
2023/12/15 04:53:33;;;;;;;73.22;30.42;;;6.20;99.90;;;;;;5042617;28;20219;-70
2023/12/15 04:56:00;;;;;;;56.67;30.40;;;6.20;99.90;;;;;;5036815;28;20251;-70
2023/12/15 04:58:28;;;;;;;75.88;36.00;;;6.20;99.90;;;;;;5034028;28;20255;-71
2023/12/15 05:00:55;;;;;;;72.38;33.17;;;6.20;99.90;;;;;;5035528;28;20556;-73
2023/12/15 05:03:23;;;;;;;70.45;32.90;;;6.20;99.90;;;;;;5038702;28;20223;-70
2023/12/15 05:05:50;;;;;;;84.13;35.92;;;6.20;99.90;;;;;;5039947;28;20291;-70
2023/12/15 05:08:16;;;;;;;77.32;35.08;;;6.20;99.90;;;;;;5052384;28;20208;-72
2023/12/15 05:10:44;;;;;;;79.50;38.53;;;6.30;99.90;;;;;;5051972;28;20204;-71
2023/12/15 05:13:11;;;;;;;84.00;39.65;;;6.30;99.90;;;;;;5048371;28;20204;-69
2023/12/15 05:15:39;;;;;;;69.63;34.47;;;6.30;99.90;;;;;;5052104;28;20196;-71
2023/12/15 05:18:06;;;;;;;89.20;39.72;;;6.40;99.90;;;;;;5038465;28;20755;-72
2023/12/15 05:20:36;;;;;;;72.80;37.08;;;6.40;99.90;;;;;;5045008;28;20196;-71
2023/12/15 05:23:03;;;;;;;85.85;39.03;;;6.40;99.90;;;;;;5048567;28;20209;-71
2023/12/15 05:25:30;;;;;;;86.75;38.33;;;6.40;99.90;;;;;;5049182;28;20207;-71
2023/12/15 05:27:57;;;;;;;81.95;37.97;;;6.40;99.90;;;;;;5051164;28;20310;-72
2023/12/15 05:30:24;;;;;;;78.88;36.47;;;6.40;99.90;;;;;;5040730;28;20200;-69
2023/12/15 05:32:52;;;;;;;96.88;39.85;;;6.50;99.90;;;;;;5050639;28;20238;-71
2023/12/15 05:35:19;;;;;;;88.93;41.42;;;6.50;99.90;;;;;;5051171;28;20203;-72
2023/12/15 05:37:46;;;;;;;91.55;39.88;;;6.50;99.90;;;;;;5051805;28;20232;-72
2023/12/15 05:40:13;;;;;;;86.75;39.05;;;6.50;99.90;;;;;;5051505;28;20204;-70
2023/12/15 05:42:40;;;;;;;106.90;41.60;;;6.50;99.90;;;;;;5039535;28;20230;-70
2023/12/15 05:45:08;;;;;;;84.18;38.38;;;6.60;99.90;;;;;;5045261;28;20583;-71
2023/12/15 05:47:36;;;;;;;103.18;40.30;;;6.60;99.90;;;;;;5051386;28;20266;-69
2023/12/15 05:50:06;;;;;;;91.00;40.45;;;6.60;99.90;;;;;;5056396;28;20277;-72
2023/12/15 05:52:34;;;;;;;91.32;41.70;;;6.60;99.90;;;;;;5055692;28;20200;-74
2023/12/15 05:55:01;;;;;;;105.85;43.05;;;6.70;99.90;;;;;;5056112;28;20207;-72
2023/12/15 05:57:28;;;;;;;119.32;44.85;;;6.70;99.90;;;;;;5048658;28;20243;-71
2023/12/15 05:59:56;;;;;;;89.10;38.95;;;6.70;99.90;;;;;;5044776;28;20689;-71
2023/12/15 06:02:23;;;;;;;116.72;46.95;;;6.70;99.90;;;;;;5054935;28;20713;-72
2023/12/15 06:04:50;;;;;;;119.07;42.72;;;6.70;99.90;;;;;;5048545;28;20666;-74
2023/12/15 06:07:19;;;;;;;112.38;42.80;;;6.80;99.90;;;;;;5037353;28;20626;-71
2023/12/15 06:09:46;;;;;;;98.70;46.75;;;6.80;99.90;;;;;;5037172;28;20541;-72
2023/12/15 06:12:13;;;;;;;102.05;43.90;;;6.80;99.90;;;;;;5057892;28;20454;-72
2023/12/15 06:14:40;;;;;;;101.72;42.03;;;6.90;99.90;;;;;;5057192;28;20655;-73
2023/12/15 06:17:07;;;;;;;113.07;43.55;;;6.90;99.90;;;;;;5047275;28;20224;-70
2023/12/15 06:19:34;;;;;;;91.57;41.13;;;6.90;99.90;;;;;;5055855;28;20255;-74
2023/12/15 06:22:01;;;;;;;90.18;38.28;;;7.00;99.90;;;;;;5057265;28;20236;-70
2023/12/15 06:24:30;;;;;;;100.97;44.42;;;7.10;99.90;;;;;;5053052;28;20192;-72
2023/12/15 06:26:57;;;;;;;93.55;40.60;;;7.00;99.90;;;;;;5050321;28;20223;-73
2023/12/15 06:29:26;;;;;;;101.30;41.85;;;7.00;99.90;;;;;;5054628;28;20560;-72
2023/12/15 06:31:52;;;;;;;100.57;39.13;;;7.00;99.90;;;;;;5054633;28;20353;-70
2023/12/15 06:34:19;;;;;;;91.72;40.88;;;7.00;99.90;;;;;;5050184;28;20211;-72
2023/12/15 06:36:47;;;;;;;90.15;39.90;;;7.00;99.90;;;;;;5053828;28;20694;-71
2023/12/15 06:39:41;;;;;;;88.70;40.25;;;7.00;99.90;;;;;;5055656;28;20289;-69
2023/12/15 06:42:08;;;;;;;87.20;38.13;;;7.00;99.90;;;;;;5056343;28;20270;-72
2023/12/15 06:44:35;;;;;;;82.65;37.90;;;7.10;99.90;;;;;;5052260;28;20650;-72
2023/12/15 06:47:02;;;;;;;94.82;39.42;;;7.10;99.90;;;;;;5048617;28;20306;-76
2023/12/15 06:49:31;;;;;;;82.28;38.65;;;7.10;99.90;;;;;;5040656;28;20196;-72
2023/12/15 06:51:58;;;;;;;122.35;43.83;;;7.10;99.90;;;;;;5037309;28;20208;-75
2023/12/15 06:54:25;;;;;;;73.55;37.13;;;7.20;99.90;;;;;;5038431;28;20252;-75
2023/12/15 06:56:53;;;;;;;105.43;40.05;;;7.20;99.90;;;;;;5038284;28;20307;-74
2023/12/15 06:59:20;;;;;;;86.00;34.78;;;7.10;99.90;;;;;;5035458;28;20201;-74
2023/12/15 07:01:47;;;;;;;69.38;35.80;;;7.10;99.90;;;;;;5038446;28;20201;-73
2023/12/15 07:04:14;;;;;;;84.55;36.97;;;7.20;99.90;;;;;;5040984;28;20280;-72
2023/12/15 07:06:41;;;;;;;77.55;38.53;;;7.10;99.90;;;;;;5036789;28;20228;-72
2023/12/15 07:09:11;;;;;;;81.57;38.63;;;7.20;99.90;;;;;;5036571;28;20291;-72
2023/12/15 07:11:39;;;;;;;68.65;36.35;;;7.20;99.90;;;;;;5036111;28;20232;-74
2023/12/15 07:14:07;;;;;;;81.80;37.58;;;7.20;99.90;;;;;;5046853;28;20231;-70
2023/12/15 07:16:34;;;;;;;62.00;32.70;;;7.20;99.90;;;;;;5042136;28;20278;-76
2023/12/15 07:19:01;;;;;;;79.18;34.72;;;7.20;99.90;;;;;;5040138;28;20209;-72
2023/12/15 07:21:29;;;;;;;69.13;34.25;;;7.30;99.90;;;;;;5040815;28;20294;-74
2023/12/15 07:23:56;;;;;;;76.97;38.67;;;7.40;99.90;;;;;;5048895;28;20212;-73
2023/12/15 07:26:23;;;;;;;64.32;35.40;;;7.30;99.90;;;;;;5043831;28;20422;-76
2023/12/15 07:28:50;;;;;;;63.30;35.63;;;7.30;99.90;;;;;;5045157;28;20211;-72
2023/12/15 07:31:19;;;;;;;78.15;37.75;;;7.40;99.90;;;;;;5036786;28;20205;-74
2023/12/15 07:33:46;;;;;;;96.18;39.22;;;7.40;99.90;;;;;;5036359;28;20213;-75
2023/12/15 07:36:14;;;;;;;82.82;39.05;;;7.50;99.90;;;;;;5039644;28;20315;-70
2023/12/15 07:38:41;;;;;;;72.40;39.53;;;7.50;99.90;;;;;;5035119;28;20291;-72
2023/12/15 07:41:08;;;;;;;68.32;35.53;;;7.50;99.90;;;;;;5046598;28;20216;-72
2023/12/15 07:43:35;;;;;;;81.70;37.95;;;7.50;99.90;;;;;;5034069;28;20201;-72
2023/12/15 07:46:02;;;;;;;80.95;40.03;;;7.50;99.90;;;;;;5040242;28;20208;-69
2023/12/15 07:48:30;;;;;;;82.50;40.20;;;7.50;99.90;;;;;;5038437;28;20578;-73
2023/12/15 07:50:57;;;;;;;73.55;37.13;;;7.40;99.90;;;;;;5044290;28;20646;-70
2023/12/15 07:53:24;;;;;;;78.35;36.00;;;7.40;99.90;;;;;;5034676;28;20613;-71
2023/12/15 07:55:51;;;;;;;67.40;33.90;;;7.50;99.90;;;;;;5040027;28;20243;-73
2023/12/15 07:58:19;;;;;;;59.75;30.77;;;7.40;99.90;;;;;;5043741;28;20212;-75
2023/12/15 08:00:46;;;;;;;74.22;36.83;;;7.60;99.90;;;;;;5034669;28;20568;-72
2023/12/15 08:03:13;;;;;;;57.63;29.08;;;7.60;99.90;;;;;;5031313;28;20228;-71
2023/12/15 08:05:41;;;;;;;63.50;32.55;;;7.70;99.90;;;;;;5045270;28;20664;-72
2023/12/15 08:08:08;;;;;;;52.83;28.67;;;7.70;99.90;;;;;;5044008;28;20704;-73
2023/12/15 08:10:35;;;;;;;68.93;34.83;;;7.70;99.90;;;;;;5045295;28;20630;-74
2023/12/15 08:13:02;;;;;;;65.45;34.45;;;7.80;99.90;;;;;;5034626;28;20276;-73
2023/12/15 08:15:29;;;;;;;57.85;30.90;;;7.90;99.90;;;;;;5048068;28;20243;-71
2023/12/15 08:17:56;;;;;;;51.70;28.40;;;7.90;99.90;;;;;;5045065;28;20311;-72
2023/12/15 08:20:23;;;;;;;49.40;27.17;;;8.10;99.90;;;;;;5045230;28;20204;-69
2023/12/15 08:22:51;;;;;;;51.60;28.67;;;8.20;99.90;;;;;;5044153;28;20258;-68
2023/12/15 08:25:18;;;;;;;43.78;27.60;;;8.70;99.90;;;;;;5045739;28;20198;-68
2023/12/15 08:27:45;;;;;;;50.33;27.25;;;9.00;99.90;;;;;;5045965;28;20603;-70
2023/12/15 08:30:12;;;;;;;48.53;28.40;;;9.00;99.90;;;;;;5046637;28;20596;-73
2023/12/15 08:32:39;;;;;;;45.55;25.20;;;9.00;99.90;;;;;;5050292;28;20370;-72
2023/12/15 08:35:08;;;;;;;41.83;24.83;;;8.90;99.90;;;;;;5045851;28;20244;-72
2023/12/15 08:37:35;;;;;;;40.47;25.08;;;9.00;99.90;;;;;;5039320;28;20263;-70
2023/12/15 08:40:03;;;;;;;48.00;24.83;;;9.20;99.90;;;;;;5039903;28;20255;-72
2023/12/15 08:42:30;;;;;;;35.35;21.38;;;9.20;99.90;;;;;;5040267;28;20211;-72
2023/12/15 08:44:57;;;;;;;37.40;23.42;;;9.20;99.90;;;;;;5047853;28;20279;-71
2023/12/15 08:47:24;;;;;;;49.22;25.50;;;8.90;99.90;;;;;;5048593;28;20220;-70
2023/12/15 08:49:51;;;;;;;43.13;24.88;;;8.90;99.90;;;;;;5051297;28;20753;-72
2023/12/15 08:52:18;;;;;;;38.58;22.10;;;9.00;99.90;;;;;;5043173;28;20231;-73
2023/12/15 08:54:45;;;;;;;43.55;22.67;;;9.10;99.90;;;;;;5047338;28;20373;-70
2023/12/15 08:57:14;;;;;;;41.15;22.67;;;9.10;99.90;;;;;;5046198;28;20233;-70
2023/12/15 08:59:42;;;;;;;37.13;21.33;;;9.20;99.90;;;;;;5045674;28;20204;-74
2023/12/15 09:02:09;;;;;;;35.63;19.83;;;9.20;99.90;;;;;;5049305;28;20205;-73
2023/12/15 09:04:35;;;;;;;36.47;20.27;;;9.20;99.90;;;;;;5041251;28;20216;-75
2023/12/15 09:07:03;;;;;;;39.78;20.80;;;9.40;99.90;;;;;;5043755;28;20332;-70
2023/12/15 09:09:30;;;;;;;40.72;21.73;;;9.40;99.90;;;;;;5040726;28;20208;-73
2023/12/15 09:11:57;;;;;;;43.03;22.65;;;9.50;99.90;;;;;;5045937;28;20567;-73
2023/12/15 09:14:25;;;;;;;42.20;22.42;;;9.40;99.90;;;;;;5047579;28;20238;-72
2023/12/15 09:16:54;;;;;;;37.08;23.23;;;9.30;99.90;;;;;;5045121;28;20303;-73
2023/12/15 09:19:21;;;;;;;39.35;24.25;;;9.30;99.90;;;;;;5049871;28;20220;-73
2023/12/15 09:21:48;;;;;;;40.85;23.45;;;9.40;99.90;;;;;;5048347;28;20208;-73
2023/12/15 09:24:15;;;;;;;39.75;19.90;;;9.40;99.90;;;;;;5045349;28;20242;-70
2023/12/15 09:26:43;;;;;;;38.10;22.02;;;9.30;99.90;;;;;;5048644;28;20713;-71
2023/12/15 09:29:10;;;;;;;37.10;19.98;;;9.30;99.90;;;;;;5042059;28;20215;-72
2023/12/15 09:31:39;;;;;;;32.55;19.13;;;9.20;99.90;;;;;;5041349;28;20208;-73
2023/12/15 09:34:06;;;;;;;37.40;20.65;;;9.20;99.90;;;;;;5048764;28;20211;-73
2023/12/15 09:36:34;;;;;;;29.65;19.27;;;9.20;99.90;;;;;;5057639;28;20255;-73
2023/12/15 09:39:03;;;;;;;39.45;20.85;;;9.20;99.90;;;;;;5049874;28;20201;-73
2023/12/15 09:41:30;;;;;;;44.05;20.25;;;9.10;99.90;;;;;;5049057;28;20200;-71
2023/12/15 09:43:57;;;;;;;39.65;17.70;;;9.10;99.90;;;;;;5042806;28;20212;-70
2023/12/15 09:46:25;;;;;;;36.95;20.23;;;9.10;99.90;;;;;;5050713;28;20303;-70
2023/12/15 09:48:53;;;;;;;42.42;19.25;;;9.10;99.90;;;;;;5048762;28;20204;-72
2023/12/15 09:51:23;;;;;;;34.17;18.75;;;9.10;99.90;;;;;;5047523;28;20595;-73
2023/12/15 09:53:51;;;;;;;37.50;18.65;;;9.10;99.90;;;;;;5040991;28;20207;-71
2023/12/15 09:56:19;;;;;;;44.45;18.90;;;9.20;99.90;;;;;;5040165;28;20228;-71
2023/12/15 09:58:46;;;;;;;32.15;18.88;;;9.20;99.90;;;;;;5053910;28;20641;-71
2023/12/15 10:01:13;;;;;;;39.53;19.20;;;9.20;99.90;;;;;;5054481;28;20223;-72
2023/12/15 10:03:40;;;;;;;38.05;17.90;;;9.20;99.90;;;;;;5048143;28;20246;-73
2023/12/15 10:06:09;;;;;;;45.00;18.70;;;9.20;99.90;;;;;;5051321;28;20243;-73
2023/12/15 10:08:40;;;;;;;44.65;19.55;;;9.30;99.90;;;;;;5048084;28;20204;-71
2023/12/15 10:11:07;;;;;;;37.30;20.00;;;9.40;99.90;;;;;;5039140;28;20200;-70
2023/12/15 10:13:34;;;;;;;25.73;15.70;;;9.40;99.90;;;;;;5049177;28;20226;-72
2023/12/15 10:16:01;;;;;;;23.67;16.40;;;9.50;99.90;;;;;;5045902;28;20569;-74
2023/12/15 10:18:28;;;;;;;28.70;16.20;;;9.60;99.90;;;;;;5048584;28;20228;-72
2023/12/15 10:20:57;;;;;;;30.35;16.15;;;9.70;99.90;;;;;;5052087;28;20244;-72
2023/12/15 10:23:28;;;;;;;29.40;15.88;;;9.70;99.90;;;;;;5047944;28;20762;-73
2023/12/15 10:25:56;;;;;;;40.28;16.08;;;9.70;99.90;;;;;;5047023;28;20200;-71
2023/12/15 10:28:23;;;;;;;29.08;14.98;;;9.70;99.90;;;;;;5043958;28;20204;-74
2023/12/15 10:30:51;;;;;;;32.95;14.75;;;9.80;99.90;;;;;;5042033;28;20204;-72
2023/12/15 10:33:19;;;;;;;36.55;16.52;;;9.80;99.90;;;;;;5046546;28;20620;-71
2023/12/15 10:35:48;;;;;;;33.58;15.48;;;9.80;99.90;;;;;;5050590;28;20274;-72
2023/12/15 10:38:15;;;;;;;35.90;13.70;;;9.80;99.90;;;;;;5044328;28;20225;-72
2023/12/15 10:40:43;;;;;;;30.73;14.40;;;9.80;99.90;;;;;;5047171;28;20639;-70
2023/12/15 10:43:11;;;;;;;25.45;12.88;;;10.00;99.90;;;;;;5045843;28;20311;-70
2023/12/15 10:45:38;;;;;;;30.77;13.50;;;9.90;99.90;;;;;;5047472;28;20192;-75
2023/12/15 10:48:06;;;;;;;35.90;14.85;;;9.70;99.90;;;;;;5048595;28;20235;-74
2023/12/15 10:50:35;;;;;;;23.33;12.65;;;9.60;99.90;;;;;;5047652;28;20204;-70
2023/12/15 10:53:03;;;;;;;37.80;14.80;;;9.70;99.90;;;;;;5050101;28;20203;-74
2023/12/15 10:55:31;;;;;;;31.45;12.50;;;9.70;99.90;;;;;;5045403;28;20282;-73
2023/12/15 10:58:01;;;;;;;28.90;14.73;;;9.80;99.90;;;;;;5045451;28;20262;-71
2023/12/15 11:00:28;;;;;;;27.55;13.45;;;9.90;99.90;;;;;;5048117;28;20216;-73
2023/12/15 11:02:55;;;;;;;35.63;13.63;;;9.90;99.90;;;;;;5047087;28;20283;-71
2023/12/15 11:05:26;;;;;;;41.03;12.73;;;9.90;99.90;;;;;;5045566;28;20561;-73
2023/12/15 11:07:54;;;;;;;23.45;13.07;;;9.90;99.90;;;;;;5046739;28;20235;-73
2023/12/15 11:10:22;;;;;;;30.17;12.88;;;10.10;99.90;;;;;;5040814;28;20296;-71
2023/12/15 11:12:49;;;;;;;26.80;13.32;;;10.20;99.90;;;;;;5046784;28;20208;-73
2023/12/15 11:15:20;;;;;;;29.80;11.98;;;10.20;99.90;;;;;;5043908;28;20737;-74
2023/12/15 11:17:49;;;;;;;32.28;15.00;;;10.10;99.90;;;;;;5051284;28;20283;-74
2023/12/15 11:20:41;;;;;;;36.95;13.02;;;10.00;99.90;;;;;;5041288;28;20989;-72
2023/12/15 11:23:10;;;;;;;28.27;14.05;;;10.00;99.90;;;;;;5044393;28;20287;-73
2023/12/15 11:25:38;;;;;;;23.10;8.95;;;10.10;99.90;;;;;;5050362;28;20284;-71
2023/12/15 11:28:09;;;;;;;27.73;11.65;;;10.20;99.90;;;;;;5042091;28;20794;-70
2023/12/15 11:30:40;;;;;;;24.58;11.05;;;10.20;99.90;;;;;;5044822;28;20208;-74
2023/12/15 11:33:40;;;;;;;24.02;10.90;;;10.20;99.90;;;;;;5048355;28;20578;-74
2023/12/15 11:36:09;;;;;;;30.20;12.93;;;10.20;99.90;;;;;;5041885;28;20220;-73
2023/12/15 11:38:36;;;;;;;26.23;10.18;;;10.20;99.90;;;;;;5044704;28;20205;-73
2023/12/15 11:41:04;;;;;;;23.58;11.40;;;10.20;99.90;;;;;;5040430;28;20636;-74
2023/12/15 11:43:32;;;;;;;26.55;10.93;;;10.10;99.90;;;;;;5047920;28;20635;-74
2023/12/15 11:46:01;;;;;;;38.88;11.23;;;10.10;99.90;;;;;;5043671;28;20201;-70
2023/12/15 11:48:27;;;;;;;37.10;10.80;;;10.10;99.90;;;;;;5037522;28;20229;-73
2023/12/15 11:50:55;;;;;;;19.63;10.93;;;10.10;99.90;;;;;;5053616;28;20612;-73
2023/12/15 11:53:22;;;;;;;20.85;10.93;;;10.00;99.90;;;;;;5036270;28;20203;-75
2023/12/15 11:55:50;;;;;;;24.35;11.63;;;10.00;99.90;;;;;;5052757;28;20218;-73
2023/12/15 11:58:18;;;;;;;31.65;10.10;;;10.10;99.90;;;;;;5049725;28;20228;-73
2023/12/15 12:00:45;;;;;;;23.70;12.18;;;10.10;99.90;;;;;;5045171;28;20209;-73
2023/12/15 12:03:14;;;;;;;25.42;10.73;;;10.10;99.90;;;;;;5034157;28;20248;-76
2023/12/15 12:05:42;;;;;;;22.52;8.30;;;10.20;99.90;;;;;;5040356;28;20262;-74
2023/12/15 12:08:10;;;;;;;32.90;9.90;;;10.10;99.90;;;;;;5043719;28;20224;-74
2023/12/15 12:10:39;;;;;;;19.60;9.70;;;10.00;99.90;;;;;;5043868;28;20210;-72
2023/12/15 12:13:07;;;;;;;21.73;9.98;;;10.00;99.90;;;;;;5045375;28;20255;-75
2023/12/15 12:15:48;;;;;;;23.90;10.25;;;9.90;99.90;;;;;;5037103;28;20216;-70
2023/12/15 12:18:16;;;;;;;34.50;11.73;;;9.80;99.90;;;;;;5037230;28;20227;-74
2023/12/15 12:20:44;;;;;;;31.45;10.48;;;9.90;99.90;;;;;;5040400;28;20209;-71
2023/12/15 12:23:12;;;;;;;26.50;10.10;;;9.90;99.90;;;;;;5037071;28;20716;-75
2023/12/15 12:25:44;;;;;;;23.45;10.38;;;9.90;99.90;;;;;;5039933;28;20725;-73
2023/12/15 12:28:12;;;;;;;27.95;10.93;;;9.90;99.90;;;;;;5047631;28;20235;-74
2023/12/15 12:30:39;;;;;;;41.22;13.02;;;9.90;99.90;;;;;;5045222;28;20639;-73
2023/12/15 12:33:05;;;;;;;27.80;10.68;;;9.90;99.90;;;;;;5042702;28;20565;-73
2023/12/15 12:35:34;;;;;;;31.65;12.10;;;9.90;99.90;;;;;;5033343;28;20222;-75
2023/12/15 12:38:00;;;;;;;24.67;10.73;;;10.00;99.90;;;;;;5040847;28;20732;-73